Time;durP1;ratioP1;P1;durP2;ratioP2;P2;SDS_P1;SDS_P2;PMS_P1;PMS_P2;Temp;Humidity;BMP_temperature;BMP_pressure;BME280_temperature;BME280_humidity;BME280_pressure;Samples;Min_cycle;Max_cycle;Signal;HPM_P1;HPM_P2
2023/01/07 00:01:37;;;;;;;0.80;0.80;;;11.60;73.20;;;10.87;60.03;95432.97;5016089;28;20204;-36
2023/01/07 00:04:08;;;;;;;0.70;0.70;;;11.60;73.30;;;10.88;60.13;95433.81;5031164;28;20195;-36
2023/01/07 00:06:39;;;;;;;0.68;0.68;;;11.60;73.30;;;10.88;59.52;95433.81;5031027;28;20181;-36
2023/01/07 00:09:11;;;;;;;0.63;0.63;;;11.60;73.30;;;10.86;60.12;95434.00;5015274;28;20199;-36
2023/01/07 00:11:40;;;;;;;0.60;0.60;;;11.60;73.30;;;10.86;60.00;95428.75;5030958;28;20295;-36
2023/01/07 00:14:11;;;;;;;0.60;0.60;;;11.60;73.30;;;10.86;60.10;95428.75;5030804;28;20581;-36
2023/01/07 00:16:39;;;;;;;0.60;0.60;;;11.60;73.30;;;10.83;60.10;95425.66;5015505;28;20181;-36
2023/01/07 00:19:11;;;;;;;0.70;0.70;;;11.50;73.30;;;10.83;60.23;95418.59;5015133;28;20216;-36
2023/01/07 00:21:38;;;;;;;0.70;0.70;;;11.50;73.20;;;10.83;60.17;95417.78;5015240;28;20188;-36
2023/01/07 00:24:06;;;;;;;0.68;0.68;;;11.60;73.30;;;10.83;60.13;95417.78;5015270;28;20189;-36
2023/01/07 00:26:35;;;;;;;0.60;0.60;;;11.50;73.30;;;10.82;60.19;95416.16;5015074;28;20680;-36
2023/01/07 00:29:04;;;;;;;0.70;0.70;;;11.50;73.30;;;10.81;60.40;95417.16;5015436;28;20204;-36
2023/01/07 00:31:35;;;;;;;0.80;0.80;;;11.50;73.30;;;10.79;60.20;95417.34;5015756;28;20185;-36
2023/01/07 00:36:41;;;;;;;0.68;0.68;;;11.50;73.40;;;10.75;60.18;95421.28;5015167;28;20185;-36
2023/01/07 00:39:18;;;;;;;0.60;0.60;;;11.40;73.40;;;10.71;60.33;95414.78;5030547;28;20201;-36
2023/01/07 00:44:33;;;;;;;0.68;0.68;;;11.50;73.50;;;10.69;60.34;95412.34;5015110;28;20628;-36
2023/01/07 00:47:01;;;;;;;0.80;0.80;;;11.40;73.50;;;10.68;60.26;95408.09;5015277;28;20585;-36
2023/01/07 00:49:28;;;;;;;0.70;0.70;;;11.40;73.40;;;10.69;60.22;95407.09;5014893;28;20188;-36
2023/01/07 00:51:55;;;;;;;0.70;0.70;;;11.40;73.40;;;10.69;60.24;95408.91;5013986;28;20225;-36
2023/01/07 00:54:23;;;;;;;0.70;0.70;;;11.40;73.50;;;10.70;60.14;95413.16;5030456;28;20200;-36
2023/01/07 00:56:51;;;;;;;0.70;0.70;;;11.40;73.50;;;10.64;60.29;95409.44;5032057;28;20199;-36
2023/01/07 00:59:18;;;;;;;0.70;0.70;;;11.30;73.40;;;10.65;60.31;95407.63;5018778;28;20185;-36
2023/01/07 01:01:45;;;;;;;0.70;0.70;;;11.30;73.50;;;10.67;60.38;95418.78;5018920;28;20193;-36
2023/01/07 01:04:12;;;;;;;0.70;0.70;;;11.30;73.50;;;10.67;60.23;95419.59;5019011;28;20589;-36
2023/01/07 01:06:39;;;;;;;0.70;0.70;;;11.30;73.40;;;10.69;60.09;95419.38;5034275;28;20200;-36
2023/01/07 01:09:07;;;;;;;0.60;0.60;;;11.30;73.40;;;10.67;60.21;95416.16;5018910;28;20280;-36
2023/01/07 01:11:34;;;;;;;0.70;0.70;;;11.30;73.30;;;10.68;60.03;95417.75;5018463;28;20189;-36
2023/01/07 01:14:01;;;;;;;0.60;0.60;;;11.40;73.40;;;10.68;60.12;95412.50;5018747;28;20215;-36
2023/01/07 01:16:28;;;;;;;0.70;0.70;;;11.30;73.30;;;10.67;60.15;95416.16;5017737;28;20252;-36
2023/01/07 01:18:55;;;;;;;0.70;0.70;;;11.30;73.30;;;10.68;60.03;95413.34;5018555;28;20189;-37
2023/01/07 01:21:22;;;;;;;0.60;0.60;;;11.30;73.30;;;10.67;60.16;95416.16;5033865;28;20200;-36
2023/01/07 01:23:49;;;;;;;0.70;0.70;;;11.30;73.30;;;10.66;60.09;95422.38;5018452;28;20298;-36
2023/01/07 01:26:16;;;;;;;0.70;0.70;;;11.30;73.40;;;10.65;60.14;95418.94;5033745;28;20298;-36
2023/01/07 01:28:44;;;;;;;0.60;0.60;;;11.30;73.20;;;10.62;60.13;95413.22;5018361;28;20699;-36
2023/01/07 01:31:14;;;;;;;0.70;0.70;;;11.30;73.20;;;10.61;60.05;95408.97;5017204;28;20291;-36
2023/01/07 01:33:46;;;;;;;0.60;0.60;;;11.30;73.30;;;10.63;59.98;95407.00;5017666;28;20299;-36
2023/01/07 01:36:13;;;;;;;0.70;0.70;;;11.30;73.30;;;10.60;60.23;95402.13;5033789;28;20192;-36
2023/01/07 01:38:41;;;;;;;0.63;0.63;;;11.30;73.20;;;10.57;60.04;95406.72;5018211;28;20203;-36
2023/01/07 01:41:11;;;;;;;0.70;0.70;;;11.20;73.20;;;10.59;59.96;95413.59;5017036;28;20204;-36
2023/01/07 01:43:41;;;;;;;0.80;0.80;;;11.30;73.20;;;10.57;60.00;95408.53;5017173;28;20197;-36
2023/01/07 01:46:18;;;;;;;0.70;0.70;;;11.20;73.10;;;10.57;60.00;95411.97;5033635;28;20643;-36
2023/01/07 01:49:02;;;;;;;0.70;0.70;;;11.30;73.20;;;10.53;59.81;95402.84;5017049;28;20209;-36
2023/01/07 01:51:36;;;;;;;0.70;0.70;;;11.20;73.10;;;10.54;59.99;95409.69;5033474;28;20201;-36
2023/01/07 01:54:08;;;;;;;0.70;0.70;;;11.20;73.10;;;10.55;59.87;95405.28;5033506;28;20424;-36
2023/01/07 01:56:42;;;;;;;0.70;0.70;;;11.20;73.00;;;10.53;59.86;95409.88;5016993;28;20212;-36
2023/01/07 01:59:18;;;;;;;0.70;0.70;;;11.30;73.10;;;10.55;59.87;95407.91;5033428;28;20231;-36
2023/01/07 02:01:45;;;;;;;0.80;0.80;;;11.20;73.10;;;10.55;59.58;95403.47;5016746;28;20223;-36
2023/01/07 02:04:18;;;;;;;0.80;0.80;;;11.20;73.10;;;10.57;59.96;95398.06;5033216;28;20197;-36
2023/01/07 02:07:10;;;;;;;0.73;0.73;;;11.20;73.10;;;10.55;59.88;95398.22;5017173;28;20253;-36
2023/01/07 02:09:43;;;;;;;0.70;0.70;;;11.20;73.00;;;10.52;59.85;95395.97;5016774;28;20227;-36
2023/01/07 02:12:29;;;;;;;0.70;0.70;;;11.20;73.00;;;10.53;59.71;95394.16;5032992;28;20248;-36
2023/01/07 02:15:08;;;;;;;0.80;0.80;;;11.20;73.00;;;10.52;59.62;95390.72;5017567;28;20263;-36
2023/01/07 02:17:53;;;;;;;0.70;0.70;;;11.20;72.90;;;10.53;59.70;95387.09;5017625;28;20271;-36
2023/01/07 02:20:58;;;;;;;0.70;0.70;;;11.20;73.00;;;10.51;59.83;95385.63;5017295;28;20542;-36
2023/01/07 02:23:43;;;;;;;0.70;0.70;;;11.20;72.90;;;10.48;59.34;95381.56;5007794;28;20527;-36
2023/01/07 02:26:34;;;;;;;0.80;0.80;;;11.10;72.70;;;10.48;59.54;95378.13;5016230;28;20244;-36
2023/01/07 02:29:34;;;;;;;0.70;0.70;;;11.10;72.80;;;10.47;59.42;95376.50;5016319;28;20608;-36
2023/01/07 02:32:28;;;;;;;0.70;0.70;;;11.10;72.80;;;10.46;59.59;95374.88;5032428;28;20647;-36
2023/01/07 02:35:29;;;;;;;0.70;0.70;;;11.10;72.80;;;10.47;59.57;95373.88;5016236;28;20620;-36
2023/01/07 02:38:11;;;;;;;0.70;0.70;;;11.10;72.70;;;10.47;59.38;95376.50;5016167;28;20207;-36
2023/01/07 02:41:13;;;;;;;0.70;0.70;;;11.10;72.90;;;10.49;59.71;95374.53;4999828;28;20279;-36
2023/01/07 02:43:50;;;;;;;0.70;0.70;;;11.20;72.80;;;10.49;59.61;95375.31;5016089;28;20192;-36
2023/01/07 02:47:01;;;;;;;0.60;0.60;;;11.20;72.80;;;10.49;59.62;95364.84;5016454;28;20201;-36
2023/01/07 02:49:28;;;;;;;0.60;0.60;;;11.20;72.80;;;10.47;59.60;95366.81;5014860;28;20758;-36
2023/01/07 02:51:55;;;;;;;0.60;0.60;;;11.20;72.80;;;10.49;59.45;95364.03;5016933;28;20503;-36
2023/01/07 02:54:26;;;;;;;0.70;0.70;;;11.20;72.80;;;10.49;59.43;95361.41;5032241;28;20225;-36
2023/01/07 02:57:33;;;;;;;0.80;0.80;;;11.20;72.70;;;10.46;59.50;95354.72;5032309;28;20196;-36
2023/01/07 03:00:33;;;;;;;0.50;0.50;;;11.20;72.80;;;10.47;59.59;95350.28;5016975;28;20193;-36
2023/01/07 03:03:31;;;;;;;0.70;0.70;;;11.20;72.70;;;10.45;59.67;95360.97;5015813;28;20201;-36
2023/01/07 03:06:01;;;;;;;0.70;0.70;;;11.20;72.70;;;10.48;59.58;95360.59;5016583;28;20186;-36
2023/01/07 03:08:45;;;;;;;0.65;0.65;;;11.20;72.60;;;10.49;59.56;95361.41;5015524;28;20211;-36
2023/01/07 03:11:13;;;;;;;0.60;0.60;;;11.20;72.70;;;10.49;59.70;95361.41;5016337;28;20187;-36
2023/01/07 03:14:08;;;;;;;0.80;0.80;;;11.20;72.70;;;10.46;59.52;95351.25;5031779;28;20227;-36
2023/01/07 03:16:43;;;;;;;0.70;0.70;;;11.30;72.80;;;10.44;59.70;95358.53;5031932;28;20185;-36
2023/01/07 03:19:17;;;;;;;0.70;0.70;;;11.20;72.70;;;10.42;59.73;95350.81;5014898;28;20208;-36
2023/01/07 03:21:46;;;;;;;0.60;0.60;;;11.20;72.70;;;10.40;59.91;95351.00;5031876;28;20188;-36
2023/01/07 03:24:15;;;;;;;0.70;0.70;;;11.20;72.70;;;10.39;59.90;95356.44;5016564;28;20204;-36
2023/01/07 03:26:47;;;;;;;0.70;0.70;;;11.20;72.70;;;10.36;59.88;95355.00;5015188;28;20259;-36
2023/01/07 03:29:18;;;;;;;0.63;0.63;;;11.20;72.70;;;10.35;59.87;95360.34;5031656;28;20193;-36
2023/01/07 03:31:55;;;;;;;0.70;0.70;;;11.20;72.70;;;10.36;60.08;95359.38;5015009;28;20530;-36
2023/01/07 03:34:26;;;;;;;0.70;0.70;;;11.20;72.80;;;10.37;60.04;95356.59;5015034;28;20224;-36
2023/01/07 03:37:02;;;;;;;0.65;0.65;;;11.20;72.80;;;10.37;59.93;95356.59;5031506;28;20200;-36
2023/01/07 03:39:32;;;;;;;0.80;0.80;;;11.10;72.70;;;10.37;59.94;95348.72;5015403;28;20275;-36
2023/01/07 03:44:44;;;;;;;0.70;0.70;;;11.20;72.80;;;10.38;59.89;95341.69;5031416;28;20224;-36
2023/01/07 03:47:13;;;;;;;0.70;0.70;;;11.10;72.70;;;10.39;59.79;95346.75;5015083;28;20287;-36
2023/01/07 03:49:40;;;;;;;0.80;0.80;;;11.10;72.70;;;10.40;59.73;95342.34;5014975;28;20271;-36
2023/01/07 03:52:08;;;;;;;0.70;0.70;;;11.10;72.70;;;10.41;59.60;95344.78;5031140;28;20274;-36
2023/01/07 03:54:35;;;;;;;0.70;0.70;;;11.20;72.80;;;10.41;59.89;95342.16;5015861;28;20228;-36
2023/01/07 03:57:02;;;;;;;0.60;0.60;;;11.20;72.80;;;10.41;59.71;95342.16;5031115;28;20534;-36
2023/01/07 03:59:29;;;;;;;0.70;0.70;;;11.20;72.80;;;10.38;59.74;95333.81;5015883;28;20200;-36
2023/01/07 04:01:57;;;;;;;0.70;0.70;;;11.20;72.70;;;10.38;59.93;95332.00;5030958;28;20204;-36
2023/01/07 04:04:24;;;;;;;0.70;0.70;;;11.10;72.70;;;10.38;59.81;95339.06;5015531;28;20686;-36
2023/01/07 04:06:52;;;;;;;0.70;0.70;;;11.20;72.80;;;10.37;59.79;95333.00;5031047;28;20250;-36
2023/01/07 04:09:20;;;;;;;0.70;0.70;;;11.20;72.70;;;10.37;59.63;95329.56;5030978;28;20211;-36
2023/01/07 04:11:48;;;;;;;0.63;0.63;;;11.20;72.80;;;10.37;59.73;95330.38;5014691;28;20224;-36
2023/01/07 04:14:16;;;;;;;0.63;0.63;;;11.10;72.60;;;10.35;59.71;95324.47;5030806;28;20216;-36
2023/01/07 04:16:43;;;;;;;0.60;0.60;;;11.10;72.60;;;10.34;59.85;95320.22;5030847;28;20188;-36
2023/01/07 04:19:11;;;;;;;0.70;0.70;;;11.10;72.60;;;10.34;59.83;95325.47;5015651;28;20201;-36
2023/01/07 04:21:38;;;;;;;0.80;0.80;;;11.10;72.60;;;10.34;59.77;95312.34;5030689;28;20201;-36
2023/01/07 04:24:05;;;;;;;0.70;0.70;;;11.10;72.70;;;10.35;59.60;95318.41;5030729;28;20196;-36
2023/01/07 04:26:33;;;;;;;0.80;0.80;;;11.10;72.60;;;10.32;59.72;95316.97;5014175;28;20228;-36
2023/01/07 04:29:01;;;;;;;0.70;0.70;;;11.10;72.60;;;10.33;59.68;95312.53;5030746;28;20208;-35
2023/01/07 04:31:29;;;;;;;0.80;0.80;;;11.10;72.60;;;10.33;59.83;95309.94;5030346;28;20209;-35
2023/01/07 04:33:56;;;;;;;0.70;0.70;;;11.10;72.60;;;10.33;59.62;95309.94;5030622;28;20212;-36
2023/01/07 04:36:24;;;;;;;0.60;0.60;;;11.10;72.60;;;10.33;59.55;95313.34;5030626;28;20201;-35
2023/01/07 04:38:51;;;;;;;0.70;0.70;;;11.10;72.60;;;10.34;59.65;95319.38;5030659;28;20223;-36
2023/01/07 04:41:18;;;;;;;0.80;0.80;;;11.10;72.60;;;10.33;59.51;95312.53;5030476;28;20228;-36
2023/01/07 04:43:46;;;;;;;0.60;0.60;;;11.10;72.60;;;10.32;59.63;95311.72;5030586;28;20295;-36
2023/01/07 04:46:13;;;;;;;0.70;0.70;;;11.10;72.60;;;10.33;59.57;95320.41;5014520;28;20204;-35
2023/01/07 04:48:40;;;;;;;0.80;0.80;;;11.10;72.60;;;10.33;59.61;95315.16;5031130;28;20299;-36
2023/01/07 04:51:07;;;;;;;0.70;0.70;;;11.10;72.60;;;10.33;59.51;95309.94;5014895;28;20268;-36
2023/01/07 04:53:34;;;;;;;0.70;0.70;;;11.10;72.60;;;10.34;59.39;95314.97;5030466;28;20271;-36
2023/01/07 04:56:05;;;;;;;0.70;0.70;;;11.10;72.50;;;10.33;59.51;95308.09;5030481;28;20271;-36
2023/01/07 04:58:32;;;;;;;0.70;0.70;;;11.10;72.50;;;10.33;59.28;95307.31;5014018;28;20200;-36
2023/01/07 05:01:02;;;;;;;0.80;0.80;;;11.10;72.50;;;10.35;59.43;95302.66;5030277;28;20596;-36
2023/01/07 05:03:33;;;;;;;0.70;0.70;;;11.10;72.50;;;10.34;58.95;95307.13;5030438;28;20228;-36
2023/01/07 05:06:01;;;;;;;0.70;0.70;;;11.10;72.40;;;10.34;59.37;95304.50;5014898;28;20196;-36
2023/01/07 05:08:28;;;;;;;0.70;0.70;;;11.10;72.40;;;10.34;59.10;95304.50;5014137;28;20585;-36
2023/01/07 05:10:56;;;;;;;0.70;0.70;;;11.10;72.40;;;10.36;59.49;95305.16;5030197;28;20201;-36
2023/01/07 05:13:24;;;;;;;0.70;0.70;;;11.10;72.30;;;10.36;59.00;95305.16;5030439;28;20753;-36
2023/01/07 05:15:52;;;;;;;0.70;0.70;;;11.10;72.30;;;10.37;59.13;95304.16;5014095;28;20550;-36
2023/01/07 05:18:19;;;;;;;0.60;0.60;;;11.10;72.30;;;10.37;59.08;95303.34;5013822;28;20588;-36
2023/01/07 05:20:47;;;;;;;0.70;0.70;;;11.10;72.30;;;10.37;58.89;95301.53;5013950;28;20292;-36
2023/01/07 05:23:14;;;;;;;0.60;0.60;;;11.10;72.30;;;10.38;58.87;95299.72;5030066;28;20201;-36
2023/01/07 05:25:43;;;;;;;0.60;0.60;;;11.10;72.20;;;10.38;59.04;95302.34;5014511;28;20695;-36
2023/01/07 05:28:10;;;;;;;0.70;0.70;;;11.10;72.30;;;10.36;58.90;95294.69;5030166;28;20205;-36
2023/01/07 05:30:39;;;;;;;0.70;0.70;;;11.10;72.20;;;10.37;59.12;95290.22;5014723;28;20192;-36
2023/01/07 05:33:07;;;;;;;0.70;0.70;;;11.10;72.20;;;10.39;58.91;95293.50;5029930;28;20225;-36
2023/01/07 05:35:35;;;;;;;0.70;0.70;;;11.10;72.10;;;10.38;58.79;95292.66;5013779;28;20201;-36
2023/01/07 05:38:03;;;;;;;0.70;0.70;;;11.10;72.10;;;10.39;58.85;95288.25;5030087;28;20250;-36
2023/01/07 05:40:30;;;;;;;0.70;0.70;;;11.10;72.10;;;10.42;58.79;95293.13;5030318;28;20201;-36
2023/01/07 05:42:57;;;;;;;0.80;0.80;;;11.10;72.10;;;10.40;58.84;95289.88;5015432;28;20193;-36
2023/01/07 05:45:26;;;;;;;0.68;0.68;;;11.10;72.20;;;10.40;58.86;95287.25;5033661;28;20200;-36
2023/01/07 05:47:53;;;;;;;0.70;0.70;;;11.10;72.10;;;10.39;58.67;95281.19;5018233;28;20205;-36
2023/01/07 05:50:20;;;;;;;0.70;0.70;;;11.10;72.00;;;10.38;58.57;95276.94;5017978;28;20189;-36
2023/01/07 05:52:50;;;;;;;0.80;0.80;;;11.10;72.90;;;10.38;58.51;95286.63;5018021;28;20215;-36
2023/01/07 05:55:18;;;;;;;0.60;0.60;;;11.10;71.90;;;10.39;58.45;95280.38;5017842;28;20522;-36
2023/01/07 05:57:44;;;;;;;0.70;0.70;;;11.10;71.90;;;10.39;58.39;95286.44;5017814;28;20219;-36
2023/01/07 06:00:13;;;;;;;0.65;0.65;;;11.10;71.90;;;10.39;58.84;95288.25;5018087;28;20528;-36
2023/01/07 06:02:40;;;;;;;0.70;0.70;;;11.10;72.00;;;10.41;58.63;95286.25;5033161;28;20608;-37
2023/01/07 06:05:08;;;;;;;0.70;0.70;;;11.10;71.90;;;10.40;58.45;95282.03;5033265;28;20200;-49
2023/01/07 06:07:35;;;;;;;0.75;0.75;;;11.10;71.80;;;10.41;58.42;95286.25;5017754;28;20255;-36
2023/01/07 06:10:03;;;;;;;0.63;0.63;;;11.10;71.80;;;10.41;58.46;95287.06;5017943;28;20205;-36
2023/01/07 06:12:30;;;;;;;0.90;0.90;;;11.10;71.90;;;10.41;58.65;95279.22;5017413;28;20192;-35
2023/01/07 06:14:57;;;;;;;0.70;0.70;;;11.10;71.90;;;10.43;58.70;95281.66;5016655;28;20216;-39
2023/01/07 06:17:24;;;;;;;0.70;0.70;;;11.10;71.90;;;10.45;58.66;95278.81;5017473;28;20193;-35
2023/01/07 06:19:52;;;;;;;0.60;0.60;;;11.20;71.90;;;10.44;58.43;95277.22;5017483;28;20200;-36
2023/01/07 06:22:19;;;;;;;0.70;0.70;;;11.20;71.90;;;10.44;58.62;95277.22;5017508;28;20523;-38
2023/01/07 06:24:46;;;;;;;0.60;0.60;;;11.10;71.80;;;10.45;58.57;95278.81;5017243;28;20197;-36
2023/01/07 06:27:13;;;;;;;0.80;0.80;;;11.20;71.90;;;10.45;58.29;95274.41;5016733;28;20209;-36
2023/01/07 06:29:40;;;;;;;0.70;0.70;;;11.20;71.90;;;10.46;58.72;95278.66;5017527;28;20197;-42
2023/01/07 06:32:08;;;;;;;0.60;0.60;;;11.20;71.80;;;10.47;58.50;95272.41;5017365;28;20226;-48
2023/01/07 06:34:35;;;;;;;0.80;0.80;;;11.20;71.80;;;10.47;58.49;95266.34;5017530;28;20640;-37
2023/01/07 06:37:03;;;;;;;0.68;0.68;;;11.20;71.80;;;10.48;58.49;95274.03;5017338;28;20250;-36
2023/01/07 06:39:30;;;;;;;0.80;0.80;;;11.20;71.80;;;10.47;58.46;95277.66;5016305;28;20197;-36
2023/01/07 06:41:57;;;;;;;0.77;0.77;;;11.20;71.80;;;10.46;58.43;95275.22;5016971;28;20247;-38
2023/01/07 06:44:24;;;;;;;0.70;0.70;;;11.20;71.80;;;10.45;58.46;95274.41;5016984;28;20515;-39
2023/01/07 06:46:51;;;;;;;0.70;0.70;;;11.20;71.80;;;10.45;58.29;95270.97;5032534;28;20208;-39
2023/01/07 06:49:18;;;;;;;0.70;0.70;;;11.20;71.70;;;10.46;58.36;95277.84;5032629;28;20192;-44
2023/01/07 06:51:45;;;;;;;0.70;0.70;;;11.20;71.70;;;10.46;58.48;95273.44;5016679;28;20581;-43
2023/01/07 06:54:12;;;;;;;0.70;0.70;;;11.20;71.80;;;10.46;58.52;95267.34;5031261;28;20766;-41
2023/01/07 06:56:40;;;;;;;0.60;0.60;;;11.10;71.60;;;10.47;58.28;95269.78;5016041;28;20711;-35
2023/01/07 06:59:07;;;;;;;0.60;0.60;;;11.20;71.90;;;10.48;58.31;95273.25;5016716;28;20196;-36
2023/01/07 07:01:34;;;;;;;0.80;0.80;;;11.20;71.90;;;10.47;58.58;95276.84;5016615;28;20189;-38
2023/01/07 07:04:01;;;;;;;0.70;0.70;;;11.20;72.00;;;10.46;58.78;95276.03;5016646;28;20211;-36
2023/01/07 07:06:28;;;;;;;0.65;0.65;;;11.20;72.10;;;10.45;58.74;95268.34;5016667;28;20631;-36
2023/01/07 07:08:56;;;;;;;0.70;0.70;;;11.20;72.10;;;10.46;58.77;95272.59;5016834;28;20216;-43
2023/01/07 07:11:22;;;;;;;0.60;0.60;;;11.20;72.10;;;10.45;58.61;95274.41;5032039;28;20213;-38
2023/01/07 07:13:50;;;;;;;0.80;0.80;;;11.20;72.10;;;10.45;58.84;95273.59;5031770;28;20586;-37
2023/01/07 07:16:17;;;;;;;0.80;0.80;;;11.20;72.10;;;10.43;58.92;95275.59;5016403;28;20262;-48
2023/01/07 07:18:44;;;;;;;0.60;0.60;;;11.20;72.10;;;10.43;59.04;95270.34;5015687;28;20196;-48
2023/01/07 07:21:11;;;;;;;0.60;0.60;;;11.20;72.10;;;10.43;58.86;95275.59;5016314;28;20193;-48
2023/01/07 07:23:38;;;;;;;0.70;0.70;;;11.20;72.10;;;10.43;58.97;95275.59;5016214;28;20204;-48
2023/01/07 07:26:06;;;;;;;0.70;0.70;;;11.20;72.10;;;10.44;59.06;95282.47;5031653;28;20232;-48
2023/01/07 07:28:33;;;;;;;0.70;0.70;;;11.20;72.20;;;10.44;58.92;95279.84;5016241;28;20229;-37
2023/01/07 07:31:00;;;;;;;0.70;0.70;;;11.20;72.20;;;10.45;59.13;95276.22;5016417;28;20259;-38
2023/01/07 07:33:27;;;;;;;0.60;0.60;;;11.20;72.30;;;10.45;59.14;95277.03;5015894;28;20287;-41
2023/01/07 07:35:55;;;;;;;0.70;0.70;;;11.20;72.40;;;10.44;59.13;95274.59;5015137;28;20192;-36
2023/01/07 07:38:22;;;;;;;0.60;0.60;;;11.20;72.40;;;10.46;59.20;95280.47;5015128;28;20215;-36
2023/01/07 07:40:49;;;;;;;0.70;0.70;;;11.20;72.40;;;10.46;59.47;95272.59;5015939;28;20193;-36
2023/01/07 07:43:16;;;;;;;0.80;0.80;;;11.20;72.50;;;10.46;59.31;95269.97;5015768;28;20185;-36
2023/01/07 07:45:43;;;;;;;0.65;0.65;;;11.20;72.50;;;10.46;59.48;95275.22;5015883;28;20199;-36
2023/01/07 07:48:13;;;;;;;0.60;0.60;;;11.20;72.50;;;10.46;59.30;95265.56;5016006;28;20203;-36
2023/01/07 07:50:40;;;;;;;0.70;0.70;;;11.20;72.50;;;10.47;59.29;95264.53;5016086;28;20189;-36
2023/01/07 07:53:09;;;;;;;0.60;0.60;;;11.20;72.40;;;10.47;59.19;95259.28;5015807;28;20193;-36
2023/01/07 07:55:40;;;;;;;0.60;0.60;;;11.20;72.40;;;10.48;59.31;95253.06;5015926;28;20248;-40
2023/01/07 07:58:07;;;;;;;0.70;0.70;;;11.20;72.40;;;10.52;59.18;95259.59;5015088;28;20196;-38
2023/01/07 08:00:34;;;;;;;0.60;0.60;;;11.20;72.50;;;10.55;59.19;95253.94;5015966;28;20197;-36
2023/01/07 08:03:01;;;;;;;0.70;0.70;;;11.20;72.50;;;10.60;59.29;95255.22;5014724;28;20220;-37
2023/01/07 08:05:29;;;;;;;0.70;0.70;;;11.30;72.60;;;10.65;59.48;95258.13;5015343;28;20192;-35
2023/01/07 08:07:57;;;;;;;0.60;0.60;;;11.30;72.60;;;10.69;59.36;95254.13;5014793;28;20193;-38
2023/01/07 08:10:26;;;;;;;0.70;0.70;;;11.30;72.60;;;10.74;59.40;95249.13;5015617;28;20193;-38
2023/01/07 08:12:53;;;;;;;0.70;0.70;;;11.40;72.70;;;10.78;59.59;95239.06;5015664;28;20219;-35
2023/01/07 08:15:21;;;;;;;0.70;0.70;;;11.40;72.70;;;10.83;59.15;95245.41;5030940;28;20219;-36
2023/01/07 08:17:55;;;;;;;0.70;0.70;;;11.40;72.60;;;10.88;59.26;95248.28;5015434;28;20204;-36
2023/01/07 08:20:22;;;;;;;0.70;0.70;;;11.50;72.70;;;10.91;59.20;95241.84;5015387;28;20611;-36
2023/01/07 08:22:49;;;;;;;0.70;0.70;;;11.50;72.70;;;10.96;59.40;95243.91;5015215;28;20508;-39
2023/01/07 08:25:16;;;;;;;0.70;0.70;;;11.60;72.70;;;10.99;59.10;95238.31;5015211;28;20236;-38
2023/01/07 08:27:45;;;;;;;0.70;0.70;;;11.60;72.70;;;11.02;59.19;95233.50;5015373;28;20208;-37
2023/01/07 08:30:12;;;;;;;0.73;0.73;;;11.60;72.70;;;11.08;59.19;95236.38;5015493;28;20271;-41
2023/01/07 08:32:39;;;;;;;0.70;0.70;;;11.70;72.70;;;11.14;59.35;95230.38;5015051;28;20193;-39
2023/01/07 08:35:07;;;;;;;0.70;0.70;;;11.70;72.70;;;11.18;59.12;95229.81;5015152;28;20212;-40
2023/01/07 08:37:34;;;;;;;0.70;0.70;;;11.80;73.60;;;11.22;59.04;95232.88;5014319;28;20251;-37
2023/01/07 08:40:02;;;;;;;0.70;0.70;;;11.80;72.60;;;11.26;58.82;95230.69;5015455;28;20195;-39
2023/01/07 08:42:31;;;;;;;0.70;0.70;;;11.80;72.60;;;11.31;58.98;95230.94;5015147;28;20181;-38
2023/01/07 08:44:59;;;;;;;0.68;0.68;;;11.90;72.60;;;11.37;59.02;95224.94;5015086;28;20207;-38
2023/01/07 08:47:26;;;;;;;0.60;0.60;;;11.90;72.60;;;11.45;59.07;95226.59;5015413;28;20647;-36
2023/01/07 08:49:54;;;;;;;0.80;0.80;;;12.00;72.80;;;11.51;58.91;95221.41;5015145;28;20208;-35
2023/01/07 08:52:22;;;;;;;0.70;0.70;;;12.00;72.70;;;11.58;58.76;95220.66;5014958;28;20228;-36
2023/01/07 08:54:50;;;;;;;0.70;0.70;;;12.10;72.70;;;11.64;58.65;95220.69;5015272;28;20660;-41
2023/01/07 08:57:19;;;;;;;0.60;0.60;;;12.10;72.60;;;11.69;58.85;95223.59;5015041;28;20197;-36
2023/01/07 08:59:46;;;;;;;0.80;0.80;;;12.20;72.50;;;11.73;58.32;95217.94;5015337;28;20284;-42
2023/01/07 09:02:18;;;;;;;0.70;0.70;;;12.30;72.40;;;11.80;58.73;95224.03;5014929;28;20280;-46
2023/01/07 09:04:45;;;;;;;0.70;0.70;;;12.30;72.40;;;11.83;58.39;95219.22;5014766;28;20587;-42
2023/01/07 09:07:14;;;;;;;0.70;0.70;;;12.40;72.40;;;11.87;57.79;95221.47;5015048;28;20283;-36
2023/01/07 09:09:41;;;;;;;0.70;0.70;;;12.40;72.20;;;11.89;57.99;95217.66;5030861;28;20300;-41
2023/01/07 09:12:09;;;;;;;0.50;0.50;;;12.50;72.10;;;11.93;58.18;95216.25;5014944;28;20223;-35
2023/01/07 09:14:37;;;;;;;0.70;0.70;;;12.50;72.20;;;11.97;58.16;95221.97;5030385;28;20230;-38
2023/01/07 09:17:04;;;;;;;0.60;0.60;;;12.60;72.10;;;11.99;58.12;95222.59;5014156;28;20612;-38
2023/01/07 09:19:31;;;;;;;0.60;0.60;;;12.60;72.00;;;12.06;58.31;95220.00;5000865;28;20249;-35
2023/01/07 09:21:58;;;;;;;0.70;0.70;;;12.60;72.10;;;12.12;58.17;95227.09;5017859;28;20203;-35
2023/01/07 09:24:26;;;;;;;0.70;0.70;;;12.70;72.20;;;12.16;57.75;95221.28;5016382;28;20204;-36
2023/01/07 09:26:53;;;;;;;0.63;0.63;;;12.70;72.10;;;12.22;57.87;95217.06;4999588;28;20245;-48
2023/01/07 09:29:20;;;;;;;0.70;0.70;;;12.80;72.00;;;12.28;57.92;95220.72;5005786;28;20229;-45
2023/01/07 09:31:47;;;;;;;0.70;0.70;;;12.80;72.00;;;12.33;57.89;95215.72;5009415;28;20239;-36
2023/01/07 09:34:14;;;;;;;0.70;0.70;;;12.90;72.00;;;12.39;57.59;95217.56;5018033;28;20240;-36
2023/01/07 09:36:41;;;;;;;0.70;0.70;;;12.90;71.90;;;12.44;57.82;95225.66;5018701;28;20270;-36
2023/01/07 09:39:10;;;;;;;0.70;0.70;;;12.90;71.80;;;12.45;57.53;95219.41;5016097;28;20340;-36
2023/01/07 09:41:57;;;;;;;0.68;0.68;;;13.00;71.70;;;12.51;57.44;95220.41;5004024;28;20207;-38
2023/01/07 09:44:38;;;;;;;0.60;0.60;;;13.00;71.60;;;12.55;57.31;95210.31;4999159;28;20479;-36
2023/01/07 09:47:08;;;;;;;0.70;0.70;;;13.10;71.70;;;12.56;57.02;95210.13;4999007;28;20189;-37
2023/01/07 09:49:35;;;;;;;0.60;0.60;;;13.10;71.70;;;12.60;57.38;95202.66;5005436;28;20597;-38
2023/01/07 09:52:15;;;;;;;0.60;0.60;;;13.20;71.70;;;12.64;57.30;95211.78;5018558;28;20271;-48
2023/01/07 09:54:46;;;;;;;0.70;0.70;;;13.20;71.30;;;12.68;57.05;95206.94;5017311;28;20205;-38
2023/01/07 09:57:16;;;;;;;0.60;0.60;;;13.20;71.40;;;12.73;57.32;95201.88;5010386;28;20205;-39
2023/01/07 09:59:44;;;;;;;0.60;0.60;;;13.30;71.50;;;12.78;57.44;95197.66;5001966;28;20176;-37
2023/01/07 10:02:34;;;;;;;0.70;0.70;;;13.30;71.60;;;12.87;57.42;95195.66;5015724;28;20197;-36
2023/01/07 10:05:26;;;;;;;0.60;0.60;;;13.40;71.70;;;12.93;57.30;95186.94;4998952;28;20197;-40
2023/01/07 10:08:40;;;;;;;0.80;0.80;;;13.50;71.50;;;13.00;57.09;95183.53;4998585;28;20194;-36
2023/01/07 10:11:30;;;;;;;0.60;0.60;;;13.50;71.40;;;13.07;57.18;95173.81;4996689;28;20197;-38
2023/01/07 10:14:30;;;;;;;0.70;0.70;;;13.60;71.50;;;13.09;56.86;95167.31;4997933;28;20283;-36
2023/01/07 10:17:20;;;;;;;0.70;0.70;;;13.70;71.30;;;13.11;56.63;95167.16;4998909;28;20197;-47
2023/01/07 10:19:59;;;;;;;0.60;0.60;;;13.70;71.00;;;13.16;56.27;95166.53;5017059;28;20208;-47
2023/01/07 10:22:51;;;;;;;0.60;0.60;;;13.80;70.70;;;13.19;56.20;95159.03;5017861;28;20199;-47
2023/01/07 10:25:24;;;;;;;0.60;0.60;;;13.80;70.70;;;13.23;56.05;95149.72;5015916;28;20224;-47
2023/01/07 10:27:58;;;;;;;0.70;0.70;;;13.80;70.80;;;13.28;55.97;95151.72;5016414;28;20247;-47
2023/01/07 10:30:30;;;;;;;0.70;0.70;;;13.90;70.60;;;13.30;54.54;95147.09;5016386;28;20224;-46
2023/01/07 10:33:30;;;;;;;0.70;0.70;;;13.90;70.10;;;13.35;55.73;95139.38;4997594;28;20213;-47
2023/01/07 10:36:21;;;;;;;0.63;0.63;;;14.00;69.80;;;13.42;55.07;95137.56;4997872;28;20240;-47
2023/01/07 10:39:00;;;;;;;0.60;0.60;;;14.00;70.20;;;13.50;54.68;95133.13;5003024;28;20633;-47
2023/01/07 10:42:01;;;;;;;0.70;0.70;;;14.10;70.00;;;13.52;54.15;95125.81;5017274;28;20230;-47
2023/01/07 10:44:48;;;;;;;0.65;0.65;;;14.20;69.70;;;13.56;54.75;95121.75;5006521;28;20288;-47
2023/01/07 10:47:23;;;;;;;0.80;0.80;;;14.30;69.70;;;13.61;54.77;95114.06;5008054;28;20212;-47